sensor_id;sensor_type;location;lat;lon;timestamp;P1;durP1;ratioP1;P2;durP2;ratioP2
45318;SDS011;31057;48.498;32.260;2023-04-03T00:01:35;25.17;;;18.00;;
45318;SDS011;31057;48.498;32.260;2023-04-03T00:03:39;29.40;;;18.98;;
45318;SDS011;31057;48.498;32.260;2023-04-03T00:05:45;35.83;;;20.80;;
45318;SDS011;31057;48.498;32.260;2023-04-03T00:07:47;31.77;;;19.80;;
45318;SDS011;31057;48.498;32.260;2023-04-03T00:09:50;30.00;;;18.75;;
45318;SDS011;31057;48.498;32.260;2023-04-03T00:11:52;33.17;;;20.35;;
45318;SDS011;31057;48.498;32.260;2023-04-03T00:13:54;29.92;;;18.42;;
45318;SDS011;31057;48.498;32.260;2023-04-03T00:15:56;37.80;;;18.73;;
45318;SDS011;31057;48.498;32.260;2023-04-03T00:17:58;34.95;;;19.85;;
45318;SDS011;31057;48.498;32.260;2023-04-03T00:20:00;36.08;;;20.20;;
45318;SDS011;31057;48.498;32.260;2023-04-03T00:22:03;40.15;;;18.70;;
45318;SDS011;31057;48.498;32.260;2023-04-03T00:24:05;30.67;;;18.88;;
45318;SDS011;31057;48.498;32.260;2023-04-03T00:26:07;34.90;;;17.67;;
45318;SDS011;31057;48.498;32.260;2023-04-03T00:28:09;36.90;;;20.17;;
45318;SDS011;31057;48.498;32.260;2023-04-03T00:30:13;39.15;;;21.75;;
45318;SDS011;31057;48.498;32.260;2023-04-03T00:32:16;40.03;;;21.17;;
45318;SDS011;31057;48.498;32.260;2023-04-03T00:34:18;34.47;;;21.30;;
45318;SDS011;31057;48.498;32.260;2023-04-03T00:36:21;41.05;;;20.67;;
45318;SDS011;31057;48.498;32.260;2023-04-03T00:38:23;41.45;;;22.15;;
45318;SDS011;31057;48.498;32.260;2023-04-03T00:40:26;41.35;;;21.48;;
45318;SDS011;31057;48.498;32.260;2023-04-03T00:42:28;42.80;;;22.02;;
45318;SDS011;31057;48.498;32.260;2023-04-03T00:46:35;38.13;;;21.15;;
45318;SDS011;31057;48.498;32.260;2023-04-03T00:48:39;42.45;;;21.42;;
45318;SDS011;31057;48.498;32.260;2023-04-03T00:50:43;39.75;;;21.02;;
45318;SDS011;31057;48.498;32.260;2023-04-03T00:52:46;37.80;;;22.45;;
45318;SDS011;31057;48.498;32.260;2023-04-03T00:54:50;46.22;;;24.70;;
45318;SDS011;31057;48.498;32.260;2023-04-03T00:56:55;40.03;;;23.33;;
45318;SDS011;31057;48.498;32.260;2023-04-03T00:59:05;41.67;;;23.73;;
45318;SDS011;31057;48.498;32.260;2023-04-03T01:01:12;44.70;;;21.30;;
45318;SDS011;31057;48.498;32.260;2023-04-03T01:03:17;43.58;;;23.58;;
45318;SDS011;31057;48.498;32.260;2023-04-03T01:05:19;43.20;;;22.45;;
45318;SDS011;31057;48.498;32.260;2023-04-03T01:07:23;43.42;;;22.23;;
45318;SDS011;31057;48.498;32.260;2023-04-03T01:09:28;47.95;;;23.85;;
45318;SDS011;31057;48.498;32.260;2023-04-03T01:11:31;40.40;;;22.90;;
45318;SDS011;31057;48.498;32.260;2023-04-03T01:13:33;44.33;;;25.00;;
45318;SDS011;31057;48.498;32.260;2023-04-03T01:15:35;43.88;;;25.40;;
45318;SDS011;31057;48.498;32.260;2023-04-03T01:17:41;42.53;;;25.60;;
45318;SDS011;31057;48.498;32.260;2023-04-03T01:19:48;45.95;;;25.55;;
45318;SDS011;31057;48.498;32.260;2023-04-03T01:22:15;44.47;;;25.35;;
45318;SDS011;31057;48.498;32.260;2023-04-03T01:24:34;43.30;;;25.73;;
45318;SDS011;31057;48.498;32.260;2023-04-03T01:26:37;47.10;;;25.70;;
45318;SDS011;31057;48.498;32.260;2023-04-03T01:28:40;40.83;;;26.70;;
45318;SDS011;31057;48.498;32.260;2023-04-03T01:30:44;49.47;;;26.73;;
45318;SDS011;31057;48.498;32.260;2023-04-03T01:32:52;40.83;;;26.23;;
45318;SDS011;31057;48.498;32.260;2023-04-03T01:34:54;38.10;;;25.90;;
45318;SDS011;31057;48.498;32.260;2023-04-03T01:36:56;48.92;;;27.10;;
45318;SDS011;31057;48.498;32.260;2023-04-03T01:38:58;44.20;;;28.45;;
45318;SDS011;31057;48.498;32.260;2023-04-03T01:41:01;47.00;;;27.50;;
45318;SDS011;31057;48.498;32.260;2023-04-03T01:43:03;42.08;;;25.65;;
45318;SDS011;31057;48.498;32.260;2023-04-03T01:45:05;45.75;;;27.55;;
45318;SDS011;31057;48.498;32.260;2023-04-03T01:47:07;46.10;;;28.90;;
45318;SDS011;31057;48.498;32.260;2023-04-03T01:51:11;53.42;;;31.80;;
45318;SDS011;31057;48.498;32.260;2023-04-03T01:53:13;68.78;;;45.70;;
45318;SDS011;31057;48.498;32.260;2023-04-03T01:55:16;61.72;;;38.83;;
45318;SDS011;31057;48.498;32.260;2023-04-03T01:57:18;55.72;;;38.30;;
45318;SDS011;31057;48.498;32.260;2023-04-03T01:59:20;68.20;;;44.53;;
45318;SDS011;31057;48.498;32.260;2023-04-03T02:01:22;55.60;;;33.85;;
45318;SDS011;31057;48.498;32.260;2023-04-03T02:03:24;54.45;;;35.85;;
45318;SDS011;31057;48.498;32.260;2023-04-03T02:05:26;46.83;;;30.70;;
45318;SDS011;31057;48.498;32.260;2023-04-03T02:07:28;51.50;;;32.47;;
45318;SDS011;31057;48.498;32.260;2023-04-03T02:09:30;49.28;;;32.53;;
45318;SDS011;31057;48.498;32.260;2023-04-03T02:11:32;47.78;;;31.33;;
45318;SDS011;31057;48.498;32.260;2023-04-03T02:13:34;48.03;;;31.70;;
45318;SDS011;31057;48.498;32.260;2023-04-03T02:17:41;45.67;;;27.45;;
45318;SDS011;31057;48.498;32.260;2023-04-03T02:21:45;41.70;;;28.20;;
45318;SDS011;31057;48.498;32.260;2023-04-03T02:23:47;41.40;;;26.08;;
45318;SDS011;31057;48.498;32.260;2023-04-03T02:27:51;46.83;;;28.27;;
45318;SDS011;31057;48.498;32.260;2023-04-03T02:29:53;45.15;;;29.90;;
45318;SDS011;31057;48.498;32.260;2023-04-03T02:31:54;43.83;;;26.95;;
45318;SDS011;31057;48.498;32.260;2023-04-03T02:35:59;47.40;;;27.00;;
45318;SDS011;31057;48.498;32.260;2023-04-03T02:38:01;45.20;;;27.50;;
45318;SDS011;31057;48.498;32.260;2023-04-03T02:40:03;42.47;;;26.77;;
45318;SDS011;31057;48.498;32.260;2023-04-03T02:42:07;43.95;;;27.50;;
45318;SDS011;31057;48.498;32.260;2023-04-03T02:44:11;46.47;;;26.95;;
45318;SDS011;31057;48.498;32.260;2023-04-03T02:46:13;35.38;;;24.73;;
45318;SDS011;31057;48.498;32.260;2023-04-03T02:48:17;40.85;;;24.60;;
45318;SDS011;31057;48.498;32.260;2023-04-03T02:50:18;37.40;;;25.08;;
45318;SDS011;31057;48.498;32.260;2023-04-03T02:52:20;46.63;;;26.05;;
45318;SDS011;31057;48.498;32.260;2023-04-03T02:54:22;40.33;;;24.20;;
45318;SDS011;31057;48.498;32.260;2023-04-03T02:56:28;40.97;;;25.42;;
45318;SDS011;31057;48.498;32.260;2023-04-03T02:58:30;47.55;;;29.52;;
45318;SDS011;31057;48.498;32.260;2023-04-03T03:00:32;48.25;;;29.38;;
45318;SDS011;31057;48.498;32.260;2023-04-03T03:02:35;46.10;;;27.02;;
45318;SDS011;31057;48.498;32.260;2023-04-03T03:04:37;48.83;;;33.47;;
45318;SDS011;31057;48.498;32.260;2023-04-03T03:06:39;50.95;;;30.92;;
45318;SDS011;31057;48.498;32.260;2023-04-03T03:08:43;50.30;;;32.25;;
45318;SDS011;31057;48.498;32.260;2023-04-03T03:10:45;52.72;;;32.45;;
45318;SDS011;31057;48.498;32.260;2023-04-03T03:12:47;55.15;;;32.25;;
45318;SDS011;31057;48.498;32.260;2023-04-03T03:16:51;53.13;;;31.48;;
45318;SDS011;31057;48.498;32.260;2023-04-03T03:18:53;53.75;;;28.33;;
45318;SDS011;31057;48.498;32.260;2023-04-03T03:20:58;52.03;;;30.67;;
45318;SDS011;31057;48.498;32.260;2023-04-03T03:23:01;51.90;;;30.17;;
45318;SDS011;31057;48.498;32.260;2023-04-03T03:25:03;56.80;;;28.58;;
45318;SDS011;31057;48.498;32.260;2023-04-03T03:27:06;48.92;;;29.60;;
45318;SDS011;31057;48.498;32.260;2023-04-03T03:29:08;56.78;;;29.98;;
45318;SDS011;31057;48.498;32.260;2023-04-03T03:33:12;48.72;;;27.23;;
45318;SDS011;31057;48.498;32.260;2023-04-03T03:35:14;50.50;;;29.17;;
45318;SDS011;31057;48.498;32.260;2023-04-03T03:37:16;45.75;;;26.73;;
45318;SDS011;31057;48.498;32.260;2023-04-03T03:39:18;46.88;;;29.33;;
45318;SDS011;31057;48.498;32.260;2023-04-03T03:41:20;47.38;;;28.58;;
45318;SDS011;31057;48.498;32.260;2023-04-03T03:43:22;49.83;;;28.38;;
45318;SDS011;31057;48.498;32.260;2023-04-03T03:45:24;49.85;;;29.65;;
45318;SDS011;31057;48.498;32.260;2023-04-03T03:47:26;48.85;;;28.23;;
45318;SDS011;31057;48.498;32.260;2023-04-03T03:51:30;52.60;;;29.13;;
45318;SDS011;31057;48.498;32.260;2023-04-03T03:53:32;48.65;;;28.98;;
45318;SDS011;31057;48.498;32.260;2023-04-03T03:55:34;43.58;;;26.92;;
45318;SDS011;31057;48.498;32.260;2023-04-03T03:57:36;52.17;;;30.85;;
45318;SDS011;31057;48.498;32.260;2023-04-03T03:59:38;49.15;;;29.83;;
45318;SDS011;31057;48.498;32.260;2023-04-03T04:01:42;48.13;;;28.98;;
45318;SDS011;31057;48.498;32.260;2023-04-03T04:03:44;50.72;;;31.02;;
45318;SDS011;31057;48.498;32.260;2023-04-03T04:07:48;47.53;;;25.40;;
45318;SDS011;31057;48.498;32.260;2023-04-03T04:09:50;50.63;;;28.77;;
45318;SDS011;31057;48.498;32.260;2023-04-03T04:13:54;44.40;;;26.27;;
45318;SDS011;31057;48.498;32.260;2023-04-03T04:15:56;53.05;;;26.95;;
45318;SDS011;31057;48.498;32.260;2023-04-03T04:17:58;50.55;;;27.67;;
45318;SDS011;31057;48.498;32.260;2023-04-03T04:22:02;51.28;;;28.05;;
45318;SDS011;31057;48.498;32.260;2023-04-03T04:24:04;57.70;;;29.73;;
45318;SDS011;31057;48.498;32.260;2023-04-03T04:26:06;60.85;;;30.85;;
45318;SDS011;31057;48.498;32.260;2023-04-03T04:28:08;55.38;;;30.23;;
45318;SDS011;31057;48.498;32.260;2023-04-03T04:30:10;46.67;;;29.25;;
45318;SDS011;31057;48.498;32.260;2023-04-03T04:32:13;53.88;;;31.67;;
45318;SDS011;31057;48.498;32.260;2023-04-03T04:36:17;42.55;;;24.10;;
45318;SDS011;31057;48.498;32.260;2023-04-03T04:38:19;56.72;;;30.30;;
45318;SDS011;31057;48.498;32.260;2023-04-03T04:40:21;57.80;;;30.80;;
45318;SDS011;31057;48.498;32.260;2023-04-03T04:42:23;59.00;;;31.23;;
45318;SDS011;31057;48.498;32.260;2023-04-03T04:46:27;56.10;;;29.00;;
45318;SDS011;31057;48.498;32.260;2023-04-03T04:48:29;51.40;;;29.08;;
45318;SDS011;31057;48.498;32.260;2023-04-03T04:50:33;49.72;;;28.33;;
45318;SDS011;31057;48.498;32.260;2023-04-03T04:54:36;53.55;;;30.85;;
45318;SDS011;31057;48.498;32.260;2023-04-03T04:56:38;60.45;;;29.70;;
45318;SDS011;31057;48.498;32.260;2023-04-03T04:58:40;59.30;;;32.38;;
45318;SDS011;31057;48.498;32.260;2023-04-03T05:00:42;59.30;;;30.20;;
45318;SDS011;31057;48.498;32.260;2023-04-03T05:02:44;62.33;;;33.95;;
45318;SDS011;31057;48.498;32.260;2023-04-03T05:04:46;54.45;;;31.52;;
45318;SDS011;31057;48.498;32.260;2023-04-03T05:08:50;65.00;;;31.50;;
45318;SDS011;31057;48.498;32.260;2023-04-03T05:10:52;63.65;;;31.27;;
45318;SDS011;31057;48.498;32.260;2023-04-03T05:12:56;61.38;;;32.67;;
45318;SDS011;31057;48.498;32.260;2023-04-03T05:14:58;54.95;;;30.88;;
45318;SDS011;31057;48.498;32.260;2023-04-03T05:17:00;53.38;;;30.27;;
45318;SDS011;31057;48.498;32.260;2023-04-03T05:19:02;48.70;;;27.23;;
45318;SDS011;31057;48.498;32.260;2023-04-03T05:23:06;48.78;;;30.55;;
45318;SDS011;31057;48.498;32.260;2023-04-03T05:25:08;47.78;;;27.77;;
45318;SDS011;31057;48.498;32.260;2023-04-03T05:29:12;46.97;;;29.27;;
45318;SDS011;31057;48.498;32.260;2023-04-03T05:31:14;48.08;;;29.48;;
45318;SDS011;31057;48.498;32.260;2023-04-03T05:33:16;40.78;;;26.20;;
45318;SDS011;31057;48.498;32.260;2023-04-03T05:35:18;36.85;;;24.58;;
45318;SDS011;31057;48.498;32.260;2023-04-03T05:37:21;35.50;;;24.30;;
45318;SDS011;31057;48.498;32.260;2023-04-03T05:39:23;37.08;;;26.38;;
45318;SDS011;31057;48.498;32.260;2023-04-03T05:41:25;37.67;;;26.25;;
45318;SDS011;31057;48.498;32.260;2023-04-03T05:45:29;39.50;;;25.48;;
45318;SDS011;31057;48.498;32.260;2023-04-03T05:47:32;45.28;;;25.73;;
45318;SDS011;31057;48.498;32.260;2023-04-03T05:49:35;41.15;;;25.63;;
45318;SDS011;31057;48.498;32.260;2023-04-03T05:51:41;40.75;;;24.98;;
45318;SDS011;31057;48.498;32.260;2023-04-03T05:53:46;35.20;;;24.10;;
45318;SDS011;31057;48.498;32.260;2023-04-03T05:55:48;34.85;;;24.13;;
45318;SDS011;31057;48.498;32.260;2023-04-03T05:57:50;38.28;;;26.02;;
45318;SDS011;31057;48.498;32.260;2023-04-03T05:59:52;34.95;;;24.88;;
45318;SDS011;31057;48.498;32.260;2023-04-03T06:03:56;36.20;;;24.38;;
45318;SDS011;31057;48.498;32.260;2023-04-03T06:06:02;42.58;;;25.38;;
45318;SDS011;31057;48.498;32.260;2023-04-03T06:08:04;39.65;;;25.05;;
45318;SDS011;31057;48.498;32.260;2023-04-03T06:12:12;36.78;;;25.58;;
45318;SDS011;31057;48.498;32.260;2023-04-03T06:14:14;37.08;;;23.25;;
45318;SDS011;31057;48.498;32.260;2023-04-03T06:16:16;34.72;;;25.77;;
45318;SDS011;31057;48.498;32.260;2023-04-03T06:20:20;36.55;;;23.48;;
45318;SDS011;31057;48.498;32.260;2023-04-03T06:22:23;37.15;;;23.90;;
45318;SDS011;31057;48.498;32.260;2023-04-03T06:24:26;35.45;;;23.55;;
45318;SDS011;31057;48.498;32.260;2023-04-03T06:26:28;38.47;;;25.02;;
45318;SDS011;31057;48.498;32.260;2023-04-03T06:28:31;43.60;;;25.70;;
45318;SDS011;31057;48.498;32.260;2023-04-03T06:30:33;37.17;;;23.52;;
45318;SDS011;31057;48.498;32.260;2023-04-03T06:32:34;37.38;;;24.45;;
45318;SDS011;31057;48.498;32.260;2023-04-03T06:34:37;36.35;;;22.23;;
45318;SDS011;31057;48.498;32.260;2023-04-03T06:38:41;34.33;;;20.25;;
45318;SDS011;31057;48.498;32.260;2023-04-03T06:40:43;40.92;;;24.17;;
45318;SDS011;31057;48.498;32.260;2023-04-03T06:44:47;47.70;;;25.73;;
45318;SDS011;31057;48.498;32.260;2023-04-03T06:46:49;43.20;;;22.77;;
45318;SDS011;31057;48.498;32.260;2023-04-03T06:48:51;41.58;;;23.35;;
45318;SDS011;31057;48.498;32.260;2023-04-03T06:50:53;43.67;;;25.88;;
45318;SDS011;31057;48.498;32.260;2023-04-03T06:52:55;40.70;;;24.85;;
45318;SDS011;31057;48.498;32.260;2023-04-03T06:54:57;47.33;;;27.00;;
45318;SDS011;31057;48.498;32.260;2023-04-03T06:57:00;38.45;;;24.58;;
45318;SDS011;31057;48.498;32.260;2023-04-03T06:59:02;42.25;;;24.50;;
45318;SDS011;31057;48.498;32.260;2023-04-03T07:01:04;38.83;;;23.38;;
45318;SDS011;31057;48.498;32.260;2023-04-03T07:03:06;33.50;;;21.27;;
45318;SDS011;31057;48.498;32.260;2023-04-03T07:07:10;37.22;;;23.80;;
45318;SDS011;31057;48.498;32.260;2023-04-03T07:09:13;32.75;;;22.13;;
45318;SDS011;31057;48.498;32.260;2023-04-03T07:11:16;28.52;;;19.27;;
45318;SDS011;31057;48.498;32.260;2023-04-03T07:13:18;29.10;;;22.30;;
45318;SDS011;31057;48.498;32.260;2023-04-03T07:15:20;33.75;;;22.83;;
45318;SDS011;31057;48.498;32.260;2023-04-03T07:17:21;35.35;;;24.88;;
45318;SDS011;31057;48.498;32.260;2023-04-03T07:19:23;32.33;;;22.92;;
45318;SDS011;31057;48.498;32.260;2023-04-03T07:21:28;35.33;;;22.85;;
45318;SDS011;31057;48.498;32.260;2023-04-03T07:23:30;35.10;;;22.67;;
45318;SDS011;31057;48.498;32.260;2023-04-03T07:27:34;33.75;;;23.30;;
45318;SDS011;31057;48.498;32.260;2023-04-03T07:29:37;37.88;;;25.70;;
45318;SDS011;31057;48.498;32.260;2023-04-03T07:31:39;31.63;;;24.23;;
45318;SDS011;31057;48.498;32.260;2023-04-03T07:33:43;37.75;;;25.55;;
45318;SDS011;31057;48.498;32.260;2023-04-03T07:35:46;36.42;;;24.10;;
45318;SDS011;31057;48.498;32.260;2023-04-03T07:37:48;36.00;;;23.33;;
45318;SDS011;31057;48.498;32.260;2023-04-03T07:39:50;35.10;;;25.20;;
45318;SDS011;31057;48.498;32.260;2023-04-03T07:41:52;36.20;;;23.58;;
45318;SDS011;31057;48.498;32.260;2023-04-03T07:43:54;35.40;;;24.63;;
45318;SDS011;31057;48.498;32.260;2023-04-03T07:45:58;33.70;;;23.15;;
45318;SDS011;31057;48.498;32.260;2023-04-03T07:48:00;32.03;;;20.98;;
45318;SDS011;31057;48.498;32.260;2023-04-03T07:50:03;36.08;;;22.52;;
45318;SDS011;31057;48.498;32.260;2023-04-03T07:52:05;36.83;;;23.88;;
45318;SDS011;31057;48.498;32.260;2023-04-03T07:54:09;37.25;;;25.27;;
45318;SDS011;31057;48.498;32.260;2023-04-03T07:56:11;34.55;;;23.10;;
45318;SDS011;31057;48.498;32.260;2023-04-03T07:58:16;32.67;;;21.38;;
45318;SDS011;31057;48.498;32.260;2023-04-03T08:00:19;30.77;;;21.33;;
45318;SDS011;31057;48.498;32.260;2023-04-03T08:04:23;28.67;;;20.33;;
45318;SDS011;31057;48.498;32.260;2023-04-03T08:06:26;32.22;;;21.45;;
45318;SDS011;31057;48.498;32.260;2023-04-03T08:08:46;27.98;;;21.27;;
45318;SDS011;31057;48.498;32.260;2023-04-03T08:10:49;33.63;;;22.25;;
45318;SDS011;31057;48.498;32.260;2023-04-03T08:12:52;31.63;;;22.75;;
45318;SDS011;31057;48.498;32.260;2023-04-03T08:14:54;30.80;;;21.42;;
45318;SDS011;31057;48.498;32.260;2023-04-03T08:16:55;27.73;;;19.25;;
45318;SDS011;31057;48.498;32.260;2023-04-03T08:18:57;30.63;;;22.00;;
45318;SDS011;31057;48.498;32.260;2023-04-03T08:21:00;27.95;;;21.42;;
45318;SDS011;31057;48.498;32.260;2023-04-03T08:23:02;29.45;;;19.73;;
45318;SDS011;31057;48.498;32.260;2023-04-03T08:25:04;29.83;;;19.80;;
45318;SDS011;31057;48.498;32.260;2023-04-03T08:27:06;28.30;;;20.65;;
45318;SDS011;31057;48.498;32.260;2023-04-03T08:29:08;32.17;;;21.52;;
45318;SDS011;31057;48.498;32.260;2023-04-03T08:31:11;23.58;;;17.70;;
45318;SDS011;31057;48.498;32.260;2023-04-03T08:33:16;27.50;;;17.42;;
45318;SDS011;31057;48.498;32.260;2023-04-03T08:37:21;22.95;;;17.17;;
45318;SDS011;31057;48.498;32.260;2023-04-03T08:39:23;26.50;;;17.05;;
45318;SDS011;31057;48.498;32.260;2023-04-03T08:41:32;25.00;;;18.23;;
45318;SDS011;31057;48.498;32.260;2023-04-03T08:46:00;25.13;;;18.67;;
45318;SDS011;31057;48.498;32.260;2023-04-03T08:48:39;25.52;;;17.50;;
45318;SDS011;31057;48.498;32.260;2023-04-03T08:50:43;26.05;;;18.10;;
45318;SDS011;31057;48.498;32.260;2023-04-03T08:52:49;24.10;;;17.58;;
45318;SDS011;31057;48.498;32.260;2023-04-03T08:54:56;22.58;;;16.77;;
45318;SDS011;31057;48.498;32.260;2023-04-03T08:57:03;23.70;;;17.73;;
45318;SDS011;31057;48.498;32.260;2023-04-03T08:59:10;22.52;;;16.33;;
45318;SDS011;31057;48.498;32.260;2023-04-03T09:01:20;22.73;;;15.73;;
45318;SDS011;31057;48.498;32.260;2023-04-03T09:03:32;22.48;;;15.15;;
45318;SDS011;31057;48.498;32.260;2023-04-03T09:05:40;15.25;;;12.95;;
45318;SDS011;31057;48.498;32.260;2023-04-03T09:10:00;16.67;;;14.90;;
45318;SDS011;31057;48.498;32.260;2023-04-03T09:14:17;29.67;;;18.50;;
45318;SDS011;31057;48.498;32.260;2023-04-03T09:18:52;22.05;;;16.83;;
45318;SDS011;31057;48.498;32.260;2023-04-03T09:21:27;25.13;;;17.48;;
45318;SDS011;31057;48.498;32.260;2023-04-03T09:25:46;21.95;;;17.48;;
45318;SDS011;31057;48.498;32.260;2023-04-03T09:27:50;29.77;;;19.92;;
45318;SDS011;31057;48.498;32.260;2023-04-03T09:29:56;22.70;;;15.50;;
45318;SDS011;31057;48.498;32.260;2023-04-03T09:32:02;21.63;;;17.17;;
45318;SDS011;31057;48.498;32.260;2023-04-03T09:34:36;24.73;;;17.83;;
45318;SDS011;31057;48.498;32.260;2023-04-03T09:36:39;22.02;;;17.80;;
45318;SDS011;31057;48.498;32.260;2023-04-03T09:38:41;21.92;;;16.23;;
45318;SDS011;31057;48.498;32.260;2023-04-03T09:40:44;22.75;;;15.95;;
45318;SDS011;31057;48.498;32.260;2023-04-03T09:42:48;23.92;;;15.82;;
45318;SDS011;31057;48.498;32.260;2023-04-03T09:45:02;21.50;;;16.52;;
45318;SDS011;31057;48.498;32.260;2023-04-03T09:47:22;19.83;;;16.63;;
45318;SDS011;31057;48.498;32.260;2023-04-03T09:49:27;21.45;;;17.17;;
45318;SDS011;31057;48.498;32.260;2023-04-03T09:51:29;23.38;;;18.42;;
45318;SDS011;31057;48.498;32.260;2023-04-03T09:55:42;17.73;;;14.07;;
45318;SDS011;31057;48.498;32.260;2023-04-03T09:57:45;18.98;;;16.25;;
45318;SDS011;31057;48.498;32.260;2023-04-03T09:59:57;21.83;;;17.48;;
45318;SDS011;31057;48.498;32.260;2023-04-03T10:02:44;22.35;;;16.80;;
45318;SDS011;31057;48.498;32.260;2023-04-03T10:04:38;19.35;;;16.23;;
45318;SDS011;31057;48.498;32.260;2023-04-03T10:06:48;21.55;;;16.25;;
45318;SDS011;31057;48.498;32.260;2023-04-03T10:09:20;25.05;;;15.65;;
45318;SDS011;31057;48.498;32.260;2023-04-03T10:11:22;18.33;;;15.65;;
45318;SDS011;31057;48.498;32.260;2023-04-03T10:13:24;16.85;;;15.13;;
45318;SDS011;31057;48.498;32.260;2023-04-03T10:15:26;19.13;;;15.68;;
45318;SDS011;31057;48.498;32.260;2023-04-03T10:19:51;21.83;;;17.67;;
45318;SDS011;31057;48.498;32.260;2023-04-03T10:21:59;24.02;;;18.85;;
45318;SDS011;31057;48.498;32.260;2023-04-03T10:44:41;22.17;;;18.95;;
45318;SDS011;31057;48.498;32.260;2023-04-03T10:47:13;25.10;;;19.13;;
45318;SDS011;31057;48.498;32.260;2023-04-03T10:53:51;31.55;;;24.73;;
45318;SDS011;31057;48.498;32.260;2023-04-03T10:58:45;29.85;;;23.95;;
45318;SDS011;31057;48.498;32.260;2023-04-03T11:00:57;27.43;;;22.00;;
45318;SDS011;31057;48.498;32.260;2023-04-03T11:03:20;29.27;;;23.63;;
45318;SDS011;31057;48.498;32.260;2023-04-03T11:05:31;26.80;;;22.33;;
45318;SDS011;31057;48.498;32.260;2023-04-03T11:07:43;29.90;;;24.10;;
45318;SDS011;31057;48.498;32.260;2023-04-03T11:09:50;40.15;;;30.17;;
45318;SDS011;31057;48.498;32.260;2023-04-03T11:12:04;27.55;;;23.17;;
45318;SDS011;31057;48.498;32.260;2023-04-03T11:14:32;34.15;;;28.35;;
45318;SDS011;31057;48.498;32.260;2023-04-03T11:16:39;32.28;;;25.75;;
45318;SDS011;31057;48.498;32.260;2023-04-03T11:18:56;22.25;;;19.55;;
45318;SDS011;31057;48.498;32.260;2023-04-03T11:21:06;28.00;;;23.50;;
45318;SDS011;31057;48.498;32.260;2023-04-03T11:23:26;26.23;;;23.13;;
45318;SDS011;31057;48.498;32.260;2023-04-03T11:25:42;28.80;;;23.58;;
45318;SDS011;31057;48.498;32.260;2023-04-03T11:28:02;36.20;;;29.40;;
45318;SDS011;31057;48.498;32.260;2023-04-03T11:30:30;42.38;;;30.73;;
45318;SDS011;31057;48.498;32.260;2023-04-03T11:32:43;39.28;;;29.92;;
45318;SDS011;31057;48.498;32.260;2023-04-03T11:34:51;39.20;;;30.63;;
45318;SDS011;31057;48.498;32.260;2023-04-03T11:36:58;41.60;;;29.40;;
45318;SDS011;31057;48.498;32.260;2023-04-03T11:39:51;48.53;;;35.88;;
45318;SDS011;31057;48.498;32.260;2023-04-03T11:41:30;41.00;;;28.35;;
45318;SDS011;31057;48.498;32.260;2023-04-03T11:43:33;30.25;;;26.23;;
45318;SDS011;31057;48.498;32.260;2023-04-03T11:45:51;33.75;;;26.08;;
45318;SDS011;31057;48.498;32.260;2023-04-03T11:47:58;31.50;;;21.55;;
45318;SDS011;31057;48.498;32.260;2023-04-03T11:54:45;20.23;;;17.35;;
45318;SDS011;31057;48.498;32.260;2023-04-03T11:56:49;36.10;;;27.40;;
45318;SDS011;31057;48.498;32.260;2023-04-03T11:59:25;44.47;;;32.85;;
45318;SDS011;31057;48.498;32.260;2023-04-03T12:05:57;28.50;;;23.80;;
45318;SDS011;31057;48.498;32.260;2023-04-03T12:10:25;27.67;;;23.17;;
45318;SDS011;31057;48.498;32.260;2023-04-03T12:12:34;30.35;;;25.95;;
45318;SDS011;31057;48.498;32.260;2023-04-03T12:14:38;29.42;;;25.13;;
45318;SDS011;31057;48.498;32.260;2023-04-03T12:28:05;54.65;;;40.60;;
45318;SDS011;31057;48.498;32.260;2023-04-03T12:30:19;49.83;;;38.40;;
45318;SDS011;31057;48.498;32.260;2023-04-03T12:35:12;51.22;;;39.88;;
45318;SDS011;31057;48.498;32.260;2023-04-03T12:42:08;53.40;;;37.33;;
45318;SDS011;31057;48.498;32.260;2023-04-03T12:44:35;50.22;;;37.58;;
45318;SDS011;31057;48.498;32.260;2023-04-03T12:46:45;65.45;;;42.97;;
45318;SDS011;31057;48.498;32.260;2023-04-03T12:48:52;62.22;;;41.88;;
45318;SDS011;31057;48.498;32.260;2023-04-03T12:50:57;82.50;;;52.85;;
45318;SDS011;31057;48.498;32.260;2023-04-03T12:53:04;74.45;;;45.80;;
45318;SDS011;31057;48.498;32.260;2023-04-03T12:55:27;70.13;;;45.08;;
45318;SDS011;31057;48.498;32.260;2023-04-03T12:57:29;90.60;;;52.33;;
45318;SDS011;31057;48.498;32.260;2023-04-03T12:59:32;80.97;;;50.47;;
45318;SDS011;31057;48.498;32.260;2023-04-03T13:03:36;69.00;;;44.72;;
45318;SDS011;31057;48.498;32.260;2023-04-03T13:05:44;74.25;;;46.97;;
45318;SDS011;31057;48.498;32.260;2023-04-03T13:08:24;61.28;;;37.38;;
45318;SDS011;31057;48.498;32.260;2023-04-03T13:10:21;67.75;;;45.72;;
45318;SDS011;31057;48.498;32.260;2023-04-03T13:12:24;74.05;;;46.13;;
45318;SDS011;31057;48.498;32.260;2023-04-03T13:14:26;54.22;;;37.72;;
45318;SDS011;31057;48.498;32.260;2023-04-03T13:16:30;57.15;;;39.40;;
45318;SDS011;31057;48.498;32.260;2023-04-03T13:18:35;57.22;;;38.72;;
45318;SDS011;31057;48.498;32.260;2023-04-03T13:20:37;56.47;;;37.20;;
45318;SDS011;31057;48.498;32.260;2023-04-03T13:22:50;55.75;;;38.45;;
45318;SDS011;31057;48.498;32.260;2023-04-03T13:27:29;58.35;;;38.92;;
45318;SDS011;31057;48.498;32.260;2023-04-03T13:29:34;72.25;;;41.33;;
45318;SDS011;31057;48.498;32.260;2023-04-03T13:31:38;64.65;;;42.58;;
45318;SDS011;31057;48.498;32.260;2023-04-03T13:33:43;74.07;;;42.80;;
45318;SDS011;31057;48.498;32.260;2023-04-03T13:35:56;65.38;;;41.85;;
45318;SDS011;31057;48.498;32.260;2023-04-03T13:40:20;60.58;;;35.67;;
45318;SDS011;31057;48.498;32.260;2023-04-03T13:44:35;64.40;;;39.35;;
45318;SDS011;31057;48.498;32.260;2023-04-03T13:46:40;61.10;;;40.00;;
45318;SDS011;31057;48.498;32.260;2023-04-03T13:48:46;57.28;;;36.13;;
45318;SDS011;31057;48.498;32.260;2023-04-03T13:51:00;58.80;;;38.92;;
45318;SDS011;31057;48.498;32.260;2023-04-03T13:53:12;53.45;;;36.70;;
45318;SDS011;31057;48.498;32.260;2023-04-03T13:55:18;55.40;;;35.90;;
45318;SDS011;31057;48.498;32.260;2023-04-03T13:57:26;51.55;;;34.60;;
45318;SDS011;31057;48.498;32.260;2023-04-03T13:59:30;56.85;;;31.17;;
45318;SDS011;31057;48.498;32.260;2023-04-03T14:01:55;36.88;;;26.70;;
45318;SDS011;31057;48.498;32.260;2023-04-03T14:03:57;46.67;;;30.60;;
45318;SDS011;31057;48.498;32.260;2023-04-03T14:06:00;48.85;;;32.03;;
45318;SDS011;31057;48.498;32.260;2023-04-03T14:10:04;42.30;;;29.23;;
45318;SDS011;31057;48.498;32.260;2023-04-03T14:14:33;38.50;;;27.45;;
45318;SDS011;31057;48.498;32.260;2023-04-03T14:16:39;45.83;;;30.55;;
45318;SDS011;31057;48.498;32.260;2023-04-03T14:18:44;44.17;;;28.40;;
45318;SDS011;31057;48.498;32.260;2023-04-03T14:20:47;53.17;;;32.90;;
45318;SDS011;31057;48.498;32.260;2023-04-03T14:22:50;48.58;;;31.20;;
45318;SDS011;31057;48.498;32.260;2023-04-03T14:24:53;52.88;;;31.85;;
45318;SDS011;31057;48.498;32.260;2023-04-03T14:26:56;57.35;;;35.58;;